createdAt,value
2018-08-28T00:00:43.293Z,101364.72
2018-08-28T00:03:11.575Z,101369.41
2018-08-28T00:05:39.790Z,101376.27
2018-08-28T00:08:08.016Z,101372.41
2018-08-28T00:10:36.322Z,101368.22
2018-08-28T00:13:04.950Z,101367.06
2018-08-28T00:15:33.279Z,101366.73
2018-08-28T00:18:01.514Z,101366.06
2018-08-28T00:20:29.765Z,101363.89
2018-08-28T00:22:58.194Z,101372.92
2018-08-28T00:25:26.503Z,101371.41
2018-08-28T00:27:54.808Z,101374.09
2018-08-28T00:30:23.083Z,101376.59
2018-08-28T00:32:51.443Z,101377.75
2018-08-28T00:35:19.755Z,101378.11
2018-08-28T00:37:48.053Z,101388.31
2018-08-28T00:40:16.367Z,101383.28
2018-08-28T00:42:44.598Z,101392.63
2018-08-28T00:45:12.874Z,101393.15
2018-08-28T00:47:41.146Z,101402.50
2018-08-28T00:50:09.457Z,101396.58
2018-08-28T00:52:37.734Z,101397.75
2018-08-28T00:55:06.053Z,101397.89
2018-08-28T00:57:34.326Z,101400.55
2018-08-28T01:00:02.582Z,101400.03
2018-08-28T01:02:30.917Z,101402.00
2018-08-28T01:04:59.228Z,101402.02
2018-08-28T01:07:27.506Z,101396.95
2018-08-28T01:09:55.803Z,101398.77
2018-08-28T01:12:24.096Z,101401.94
2018-08-28T01:14:52.328Z,101403.59
2018-08-28T01:17:20.611Z,101409.06
2018-08-28T01:19:48.875Z,101413.23
2018-08-28T01:22:17.146Z,101413.55
2018-08-28T01:24:45.422Z,101417.03
2018-08-28T01:27:13.727Z,101416.16
2018-08-28T01:29:41.973Z,101410.81
2018-08-28T01:32:10.247Z,101418.14
2018-08-28T01:34:38.590Z,101412.39
2018-08-28T01:37:06.980Z,101415.37
2018-08-28T01:39:35.272Z,101410.33
2018-08-28T01:42:03.558Z,101407.16
2018-08-28T01:44:31.885Z,101401.62
2018-08-28T01:47:00.266Z,101407.96
2018-08-28T01:49:28.482Z,101405.94
2018-08-28T01:51:58.163Z,101402.23
2018-08-28T01:54:26.487Z,101398.54
2018-08-28T01:56:54.746Z,101405.90
2018-08-28T01:59:23.035Z,101405.86
2018-08-28T02:01:51.318Z,101403.84
2018-08-28T02:04:19.606Z,101405.48
2018-08-28T02:06:47.847Z,101407.12
2018-08-28T02:09:16.097Z,101406.61
2018-08-28T02:11:44.333Z,101407.76
2018-08-28T02:14:12.594Z,101410.23
2018-08-28T02:16:40.902Z,101409.05
2018-08-28T02:19:09.158Z,101410.53
2018-08-28T02:21:37.493Z,101412.02
2018-08-28T02:24:06.143Z,101409.16
2018-08-28T02:26:34.558Z,101413.31
2018-08-28T02:29:02.881Z,101413.00
2018-08-28T02:31:31.223Z,101414.48
2018-08-28T02:33:59.459Z,101415.33
2018-08-28T02:36:27.738Z,101417.32
2018-08-28T02:38:56.033Z,101413.81
2018-08-28T02:41:24.284Z,101416.66
2018-08-28T02:43:52.539Z,101409.80
2018-08-28T02:46:20.769Z,101409.59
2018-08-28T02:48:49.009Z,101410.94
2018-08-28T02:51:17.327Z,101411.58
2018-08-28T02:53:45.655Z,101412.87
2018-08-28T02:56:13.900Z,101415.53
2018-08-28T02:58:42.167Z,101417.50
2018-08-28T03:01:10.452Z,101412.95
2018-08-28T03:03:38.712Z,101415.92
2018-08-28T03:06:06.989Z,101418.40
2018-08-28T03:08:35.199Z,101419.87
2018-08-28T03:11:03.474Z,101418.38
2018-08-28T03:13:31.746Z,101419.02
2018-08-28T03:16:00.061Z,101417.20
2018-08-28T03:18:28.374Z,101416.36
2018-08-28T03:20:56.735Z,101422.48
2018-08-28T03:23:24.977Z,101421.76
2018-08-28T03:25:53.269Z,101422.55
2018-08-28T03:28:21.586Z,101422.55
2018-08-28T03:30:49.898Z,101427.39
2018-08-28T03:33:18.251Z,101429.22
2018-08-28T03:35:46.500Z,101434.06
2018-08-28T03:38:15.010Z,101434.55
2018-08-28T03:40:43.254Z,101439.20
2018-08-28T03:43:11.504Z,101438.05
2018-08-28T03:45:39.742Z,101441.00
2018-08-28T03:48:08.088Z,101439.47
2018-08-28T03:50:36.393Z,101445.94
2018-08-28T03:53:05.173Z,101443.91
2018-08-28T03:55:33.460Z,101449.05
2018-08-28T03:58:01.723Z,101447.55
2018-08-28T04:00:30.018Z,101450.70
2018-08-28T04:02:58.319Z,101453.66
2018-08-28T04:05:26.577Z,101454.65
2018-08-28T04:07:54.855Z,101451.14
2018-08-28T04:10:23.114Z,101454.30
2018-08-28T04:12:51.398Z,101451.98
2018-08-28T04:15:19.726Z,101450.30
2018-08-28T04:17:50.018Z,101448.62
2018-08-28T04:20:19.593Z,101447.92
2018-08-28T04:22:48.065Z,101452.56
2018-08-28T04:25:17.183Z,101451.87
2018-08-28T04:27:45.981Z,101456.56
2018-08-28T04:30:14.314Z,101458.24
2018-08-28T04:34:50.845Z,101459.58
2018-08-28T04:37:20.590Z,101461.20
2018-08-28T04:39:48.878Z,101464.85
2018-08-28T04:42:17.118Z,101468.53
2018-08-28T04:44:45.446Z,101464.53
2018-08-28T04:47:13.825Z,101468.02
2018-08-28T04:49:42.124Z,101468.02
2018-08-28T04:52:10.544Z,101468.85
2018-08-28T04:54:38.967Z,101470.53
2018-08-28T04:57:07.285Z,101473.52
2018-08-28T04:59:35.522Z,101478.36
2018-08-28T05:02:03.915Z,101481.34
2018-08-28T05:04:32.270Z,101483.20
2018-08-28T05:07:00.658Z,101486.02
2018-08-28T05:09:28.910Z,101479.84
2018-08-28T05:11:57.299Z,101478.80
2018-08-28T05:14:25.629Z,101483.48
2018-08-28T05:16:53.960Z,101483.98
2018-08-28T05:19:22.315Z,101489.81
2018-08-28T05:21:50.481Z,101489.81
2018-08-28T05:24:18.754Z,101493.31
2018-08-28T05:26:47.037Z,101490.16
2018-08-28T05:29:15.666Z,101491.70
2018-08-28T05:31:44.037Z,101490.86
2018-08-28T05:34:12.289Z,101492.36
2018-08-28T05:36:40.654Z,101497.55
2018-08-28T05:39:08.988Z,101495.23
2018-08-28T05:41:37.458Z,101493.27
2018-08-28T05:44:05.782Z,101500.98
2018-08-28T05:46:34.067Z,101503.00
2018-08-28T05:49:02.998Z,101503.21
2018-08-28T05:51:31.251Z,101500.72
2018-08-28T05:53:59.483Z,101505.91
2018-08-28T05:56:27.851Z,101507.09
2018-08-28T05:58:56.125Z,101507.30
2018-08-28T06:01:24.383Z,101503.00
2018-08-28T06:03:52.662Z,101512.55
2018-08-28T06:06:20.920Z,101515.24
2018-08-28T06:08:49.272Z,101520.08
2018-08-28T06:11:17.731Z,101517.63
2018-08-28T06:13:46.106Z,101520.14
2018-08-28T06:16:14.357Z,101525.36
2018-08-28T06:18:42.708Z,101521.56
2018-08-28T06:21:11.171Z,101532.44
2018-08-28T06:23:39.507Z,101526.81
2018-08-28T06:26:07.865Z,101532.17
2018-08-28T06:28:36.112Z,101530.55
2018-08-28T06:31:04.494Z,101531.59
2018-08-28T06:33:32.810Z,101535.65
2018-08-28T06:36:01.182Z,101533.64
2018-08-28T06:38:29.534Z,101539.03
2018-08-28T06:40:57.809Z,101539.23
2018-08-28T06:43:26.097Z,101540.77
2018-08-28T06:45:54.612Z,101539.98
2018-08-28T06:48:22.889Z,101544.99
2018-08-28T06:50:51.233Z,101546.38
2018-08-28T06:53:19.606Z,101548.26
2018-08-28T06:55:47.877Z,101545.14
2018-08-28T06:58:16.129Z,101552.03
2018-08-28T07:00:44.365Z,101546.05
2018-08-28T07:03:12.637Z,101541.05
2018-08-28T07:05:40.956Z,101546.45
2018-08-28T07:08:09.263Z,101546.15
2018-08-28T07:10:37.553Z,101548.14
2018-08-28T07:13:05.914Z,101550.86
2018-08-28T07:15:34.247Z,101554.91
2018-08-28T07:18:02.618Z,101551.94
2018-08-28T07:20:30.871Z,101547.59
2018-08-28T07:22:59.147Z,101549.82
2018-08-28T07:25:27.407Z,101556.20
2018-08-28T07:27:55.656Z,101555.09
2018-08-28T07:30:24.070Z,101550.93
2018-08-28T07:32:52.395Z,101554.64
2018-08-28T07:35:20.702Z,101556.48
2018-08-28T07:37:48.986Z,101553.50
2018-08-28T07:40:17.275Z,101555.03
2018-08-28T07:42:45.609Z,101557.90
2018-08-28T07:45:13.875Z,101556.91
2018-08-28T07:47:42.149Z,101556.91
2018-08-28T07:50:10.374Z,101558.44
2018-08-28T07:52:38.744Z,101557.95
2018-08-28T07:55:07.059Z,101562.30
2018-08-28T07:57:35.423Z,101562.49
2018-08-28T08:00:03.747Z,101561.16
2018-08-28T08:02:32.053Z,101567.19
2018-08-28T08:05:00.337Z,101568.03
2018-08-28T08:07:28.666Z,101566.55
2018-08-28T08:09:56.997Z,101570.70
2018-08-28T08:12:25.273Z,101574.22
2018-08-28T08:14:53.943Z,101576.09
2018-08-28T08:17:22.280Z,101576.75
2018-08-28T08:19:50.495Z,101576.28
2018-08-28T08:22:18.902Z,101575.33
2018-08-28T08:24:47.117Z,101575.86
2018-08-28T08:27:15.413Z,101576.55
2018-08-28T08:29:43.694Z,101564.89
2018-08-28T08:32:12.005Z,101574.94
2018-08-28T08:34:40.321Z,101572.61
2018-08-28T08:37:08.699Z,101582.47
2018-08-28T08:39:37.018Z,101583.16
2018-08-28T08:42:05.352Z,101573.45
2018-08-28T08:44:33.597Z,101565.95
2018-08-28T08:47:01.862Z,101566.83
2018-08-28T08:49:30.150Z,101571.02
2018-08-28T08:51:58.493Z,101568.69
2018-08-28T08:54:26.833Z,101562.31
2018-08-28T08:56:55.958Z,101568.84
2018-08-28T08:59:24.239Z,101564.67
2018-08-28T09:01:52.470Z,101565.05
2018-08-28T09:04:20.882Z,101579.33
2018-08-28T09:06:49.087Z,101564.80
2018-08-28T09:09:17.355Z,101566.63
2018-08-28T09:11:45.597Z,101569.17
2018-08-28T09:14:13.906Z,101568.33
2018-08-28T09:16:42.221Z,101566.67
2018-08-28T09:19:10.713Z,101566.85
2018-08-28T09:21:38.964Z,101558.00
2018-08-28T09:24:07.201Z,101556.38
2018-08-28T09:26:35.492Z,101549.16
2018-08-28T09:29:03.857Z,101544.84
2018-08-28T09:31:32.173Z,101540.84
2018-08-28T09:34:00.479Z,101542.33
2018-08-28T09:36:28.856Z,101533.81
2018-08-28T09:38:57.154Z,101531.12
2018-08-28T09:41:25.419Z,101538.13
2018-08-28T09:43:53.715Z,101536.63
2018-08-28T09:46:21.934Z,101534.13
2018-08-28T09:48:50.231Z,101536.16
2018-08-28T09:51:18.546Z,101533.16
2018-08-28T09:53:46.876Z,101526.44
2018-08-28T09:56:15.182Z,101527.63
2018-08-28T09:58:43.476Z,101526.62
2018-08-28T10:01:16.987Z,101521.46
2018-08-28T10:03:45.336Z,101519.13
2018-08-28T10:06:13.641Z,101520.83
2018-08-28T10:08:41.912Z,101513.80
2018-08-28T10:11:10.534Z,101518.48
2018-08-28T10:13:38.789Z,101516.78
2018-08-28T10:16:07.091Z,101516.08
2018-08-28T10:18:35.447Z,101513.86
2018-08-28T10:21:03.712Z,101511.70
2018-08-28T10:23:32.001Z,101514.69
2018-08-28T10:26:00.309Z,101507.97
2018-08-28T10:28:28.578Z,101508.13
2018-08-28T10:30:56.837Z,101503.37
2018-08-28T10:33:25.121Z,101500.06
2018-08-28T10:35:53.401Z,101497.34
2018-08-28T10:38:21.631Z,101493.91
2018-08-28T10:40:49.970Z,101492.88
2018-08-28T10:43:18.235Z,101491.16
2018-08-28T10:45:46.570Z,101489.27
2018-08-28T10:48:14.901Z,101492.29
2018-08-28T10:50:43.166Z,101488.78
2018-08-28T10:53:11.411Z,101492.14
2018-08-28T10:55:39.749Z,101491.14
2018-08-28T10:58:08.041Z,101490.84
2018-08-28T11:00:36.340Z,101494.20
2018-08-28T11:03:04.702Z,101483.61
2018-08-28T11:05:32.918Z,101484.75
2018-08-28T11:08:01.187Z,101484.60
2018-08-28T11:10:29.538Z,101485.79
2018-08-28T11:12:57.985Z,101481.80
2018-08-28T11:15:26.294Z,101482.16
2018-08-28T11:17:54.630Z,101483.91
2018-08-28T11:20:22.916Z,101479.66
2018-08-28T11:22:51.309Z,101476.34
2018-08-28T11:25:19.626Z,101477.13
2018-08-28T11:27:47.995Z,101482.33
2018-08-28T11:30:16.310Z,101476.36
2018-08-28T11:32:44.938Z,101479.75
2018-08-28T11:35:13.217Z,101482.30
2018-08-28T11:37:41.491Z,101483.31
2018-08-28T11:40:09.791Z,101481.49
2018-08-28T11:42:38.041Z,101482.16
2018-08-28T11:45:06.719Z,101479.13
2018-08-28T11:47:34.958Z,101477.25
2018-08-28T11:50:03.231Z,101473.59
2018-08-28T11:52:31.665Z,101469.88
2018-08-28T11:54:59.908Z,101479.47
2018-08-28T11:57:28.130Z,101481.98
2018-08-28T11:59:56.395Z,101474.28
2018-08-28T12:02:24.691Z,101475.53
2018-08-28T12:04:53.168Z,101472.13
2018-08-28T12:07:21.876Z,101458.73
2018-08-28T12:09:50.115Z,101460.61
2018-08-28T12:12:18.394Z,101458.02
2018-08-28T12:14:46.681Z,101447.00
2018-08-28T12:17:15.225Z,101449.17
2018-08-28T12:19:43.519Z,101446.94
2018-08-28T12:22:11.733Z,101438.29
2018-08-28T12:24:39.967Z,101441.22
2018-08-28T12:27:08.226Z,101442.16
2018-08-28T12:29:36.531Z,101443.21
2018-08-28T12:32:04.774Z,101442.60
2018-08-28T12:34:32.998Z,101441.34
2018-08-28T12:37:01.266Z,101435.12
2018-08-28T12:39:29.467Z,101429.39
2018-08-28T12:41:57.674Z,101422.53
2018-08-28T12:44:25.970Z,101416.56
2018-08-28T12:46:54.698Z,101413.27
2018-08-28T12:49:22.920Z,101418.02
2018-08-28T12:51:51.160Z,101403.47
2018-08-28T12:54:19.510Z,101404.11
2018-08-28T12:56:47.927Z,101397.85
2018-08-28T12:59:16.230Z,101401.94
2018-08-28T13:01:44.502Z,101400.42
2018-08-28T13:04:12.753Z,101396.48
2018-08-28T13:06:41.013Z,101394.41
2018-08-28T13:09:09.295Z,101398.47
2018-08-28T13:11:37.599Z,101400.33
2018-08-28T13:14:06.031Z,101384.73
2018-08-28T13:16:34.398Z,101382.50
2018-08-28T13:19:02.822Z,101369.89
2018-08-28T13:21:31.041Z,101371.03
2018-08-28T13:23:59.349Z,101365.16
2018-08-28T13:26:27.697Z,101365.53
2018-08-28T13:28:55.907Z,101369.54
2018-08-28T13:31:24.273Z,101365.81
2018-08-28T13:33:52.542Z,101358.25
2018-08-28T13:36:20.865Z,101352.63
2018-08-28T13:38:49.117Z,101353.73
2018-08-28T13:41:17.470Z,101342.31
2018-08-28T13:43:45.730Z,101341.81
2018-08-28T13:46:13.974Z,101348.17
2018-08-28T13:48:42.245Z,101344.97
2018-08-28T13:51:10.559Z,101340.99
2018-08-28T13:53:38.907Z,101343.52
2018-08-28T13:56:07.109Z,101331.59
2018-08-28T13:58:35.513Z,101329.73
2018-08-28T14:01:03.891Z,101332.13
2018-08-28T14:03:32.205Z,101330.77
2018-08-28T14:06:00.539Z,101326.42
2018-08-28T14:08:28.805Z,101326.41
2018-08-28T14:10:57.048Z,101325.05
2018-08-28T14:13:25.449Z,101321.45
2018-08-28T14:15:53.628Z,101326.52
2018-08-28T14:18:21.978Z,101320.20
2018-08-28T14:20:50.254Z,101309.52
2018-08-28T14:23:18.523Z,101313.62
2018-08-28T14:25:46.793Z,101307.20
2018-08-28T14:28:15.102Z,101307.09
2018-08-28T14:30:43.363Z,101311.20
2018-08-28T14:33:11.635Z,101308.16
2018-08-28T14:35:40.021Z,101304.78
2018-08-28T14:38:08.277Z,101305.92
2018-08-28T14:40:36.557Z,101301.09
2018-08-28T14:43:04.842Z,101296.62
2018-08-28T14:45:33.175Z,101287.41
2018-08-28T14:48:01.533Z,101289.14
2018-08-28T14:50:29.915Z,101280.91
2018-08-28T14:52:58.143Z,101280.78
2018-08-28T14:55:26.460Z,101276.86
2018-08-28T14:57:54.767Z,101274.33
2018-08-28T15:00:23.027Z,101272.87
2018-08-28T15:02:51.351Z,101281.60
2018-08-28T15:05:19.638Z,101267.91
2018-08-28T15:07:47.914Z,101276.01
2018-08-28T15:10:16.221Z,101266.55
2018-08-28T15:12:44.506Z,101262.55
2018-08-28T15:15:12.769Z,101258.00
2018-08-28T15:17:41.056Z,101257.22
2018-08-28T15:20:09.413Z,101262.45
2018-08-28T15:22:38.041Z,101260.78
2018-08-28T15:25:06.863Z,101258.08
2018-08-28T15:27:35.165Z,101254.10
2018-08-28T15:30:03.447Z,101249.98
2018-08-28T15:32:31.769Z,101247.02
2018-08-28T15:35:00.018Z,101243.39
2018-08-28T15:37:28.433Z,101241.18
2018-08-28T15:39:56.704Z,101245.65
2018-08-28T15:42:24.950Z,101243.73
2018-08-28T15:44:53.397Z,101244.75
2018-08-28T15:47:21.725Z,101245.71
2018-08-28T15:49:50.042Z,101247.06
2018-08-28T15:52:18.303Z,101240.78
2018-08-28T15:54:46.544Z,101237.15
2018-08-28T15:57:14.877Z,101233.83
2018-08-28T15:59:43.150Z,101240.26
2018-08-28T16:02:11.648Z,101236.00
2018-08-28T16:04:39.859Z,101235.58
2018-08-28T16:07:08.063Z,101235.52
2018-08-28T16:09:36.425Z,101235.00
2018-08-28T16:12:04.762Z,101230.55
2018-08-28T16:14:33.038Z,101223.19
2018-08-28T16:17:01.324Z,101218.12
2018-08-28T16:19:29.661Z,101219.04
2018-08-28T16:21:59.541Z,101214.31
2018-08-28T16:24:27.838Z,101211.78
2018-08-28T16:26:56.509Z,101208.03
2018-08-28T16:29:24.786Z,101208.61
2018-08-28T16:31:53.198Z,101203.94
2018-08-28T16:34:21.491Z,101199.73
2018-08-28T16:36:49.754Z,101194.47
2018-08-28T16:39:18.111Z,101190.58
2018-08-28T16:41:46.512Z,101187.47
2018-08-28T16:44:14.855Z,101183.89
2018-08-28T16:46:43.145Z,101184.91
2018-08-28T16:49:11.415Z,101182.12
2018-08-28T16:51:39.650Z,101177.20
2018-08-28T16:54:07.931Z,101178.64
2018-08-28T16:56:36.174Z,101171.49
2018-08-28T16:59:04.759Z,101172.59
2018-08-28T17:01:33.157Z,101166.58
2018-08-28T17:04:07.977Z,101172.25
2018-08-28T17:06:36.276Z,101166.76
2018-08-28T17:09:05.225Z,101160.22
2018-08-28T17:11:33.570Z,101152.88
2018-08-28T17:14:01.844Z,101151.66
2018-08-28T17:16:30.207Z,101145.77
2018-08-28T17:18:58.581Z,101145.91
2018-08-28T17:21:26.906Z,101146.88
2018-08-28T17:23:55.198Z,101140.72
2018-08-28T17:26:23.474Z,101137.31
2018-08-28T17:28:51.736Z,101136.39
2018-08-28T17:31:20.010Z,101138.98
2018-08-28T17:33:48.315Z,101138.58
2018-08-28T17:36:16.638Z,101143.97
2018-08-28T17:38:44.942Z,101137.44
2018-08-28T17:41:13.257Z,101137.90
2018-08-28T17:43:41.528Z,101145.49
2018-08-28T17:46:10.166Z,101143.28
2018-08-28T17:48:38.406Z,101143.18
2018-08-28T17:51:06.734Z,101142.00
2018-08-28T17:53:35.042Z,101132.45
2018-08-28T17:56:03.323Z,101131.59
2018-08-28T17:58:31.656Z,101129.09
2018-08-28T18:00:59.896Z,101129.89
2018-08-28T18:03:28.210Z,101134.44
2018-08-28T18:05:56.814Z,101136.75
2018-08-28T18:08:25.078Z,101133.41
2018-08-28T18:10:53.383Z,101130.78
2018-08-28T18:13:21.642Z,101134.66
2018-08-28T18:15:49.952Z,101135.03
2018-08-28T18:18:18.258Z,101135.17
2018-08-28T18:20:46.638Z,101132.84
2018-08-28T18:23:14.886Z,101132.19
2018-08-28T18:25:43.188Z,101129.59
2018-08-28T18:28:11.557Z,101118.73
2018-08-28T18:30:39.794Z,101127.20
2018-08-28T18:33:08.134Z,101132.55
2018-08-28T18:35:36.442Z,101127.09
2018-08-28T18:38:04.806Z,101135.94
2018-08-28T18:40:33.150Z,101133.72
2018-08-28T18:43:01.558Z,101132.81
2018-08-28T18:45:30.066Z,101129.56
2018-08-28T18:47:58.414Z,101129.48
2018-08-28T18:50:26.639Z,101131.08
2018-08-28T18:52:54.871Z,101136.84
2018-08-28T18:55:23.235Z,101135.92
2018-08-28T18:57:52.657Z,101140.34
2018-08-28T19:00:21.378Z,101134.20
2018-08-28T19:02:51.030Z,101127.21
2018-08-28T19:05:19.583Z,101128.09
2018-08-28T19:07:51.152Z,101129.20
2018-08-28T19:10:21.531Z,101133.61
2018-08-28T19:12:50.897Z,101127.95
2018-08-28T19:15:19.246Z,101132.36
2018-08-28T19:17:47.618Z,101131.09
2018-08-28T19:20:15.917Z,101131.28
2018-08-28T19:22:44.282Z,101132.16
2018-08-28T19:25:12.603Z,101129.66
2018-08-28T19:27:40.991Z,101132.53
2018-08-28T19:30:09.433Z,101131.05
2018-08-28T19:32:37.774Z,101129.38
2018-08-28T19:35:06.310Z,101127.20
2018-08-28T19:37:34.656Z,101123.57
2018-08-28T19:40:02.898Z,101121.95
2018-08-28T19:42:31.201Z,101126.86
2018-08-28T19:44:59.498Z,101123.70
2018-08-28T19:47:27.779Z,101129.77
2018-08-28T19:49:56.148Z,101124.77
2018-08-28T19:52:24.326Z,101123.61
2018-08-28T19:54:52.615Z,101126.48
2018-08-28T19:57:20.909Z,101128.52
2018-08-28T19:59:49.247Z,101130.22
2018-08-28T20:02:17.494Z,101124.70
2018-08-28T20:04:45.803Z,101128.63
2018-08-28T20:07:14.090Z,101121.26
2018-08-28T20:09:42.370Z,101117.59
2018-08-28T20:12:10.626Z,101122.31
2018-08-28T20:14:38.939Z,101121.34
2018-08-28T20:17:07.170Z,101126.05
2018-08-28T20:19:35.447Z,101117.05
2018-08-28T20:22:03.698Z,101112.05
2018-08-28T20:24:31.944Z,101109.03
2018-08-28T20:27:00.258Z,101110.05
2018-08-28T20:29:28.429Z,101104.53
2018-08-28T20:31:56.727Z,101099.53
2018-08-28T20:34:24.967Z,101101.37
2018-08-28T20:36:53.320Z,101103.73
2018-08-28T20:39:21.589Z,101101.45
2018-08-28T20:41:49.879Z,101097.45
2018-08-28T20:44:18.092Z,101091.29
2018-08-28T20:46:46.321Z,101089.47
2018-08-28T20:49:14.609Z,101084.17
2018-08-28T20:51:42.881Z,101081.16
2018-08-28T20:54:11.193Z,101080.00
2018-08-28T20:56:39.574Z,101084.71
2018-08-28T20:59:08.077Z,101084.39
2018-08-28T21:01:36.328Z,101078.55
2018-08-28T21:04:04.583Z,101081.27
2018-08-28T21:06:32.825Z,101082.67
2018-08-28T21:09:01.089Z,101074.62
2018-08-28T21:11:29.410Z,101080.67
2018-08-28T21:13:57.714Z,101069.79
2018-08-28T21:16:25.989Z,101071.64
2018-08-28T21:18:54.277Z,101070.69
2018-08-28T21:21:22.551Z,101061.98
2018-08-28T21:23:50.841Z,101066.70
2018-08-28T21:26:19.180Z,101066.04
2018-08-28T21:28:47.448Z,101058.86
2018-08-28T21:31:15.764Z,101057.69
2018-08-28T21:33:44.020Z,101056.71
2018-08-28T21:36:12.318Z,101064.13
2018-08-28T21:38:40.701Z,101058.44
2018-08-28T21:41:08.997Z,101051.08
2018-08-28T21:43:37.304Z,101060.80
2018-08-28T21:46:05.528Z,101051.73
2018-08-28T21:48:33.798Z,101051.73
2018-08-28T21:51:02.066Z,101050.06
2018-08-28T21:53:30.490Z,101050.72
2018-08-28T21:55:58.733Z,101052.39
2018-08-28T21:58:26.992Z,101046.37
2018-08-28T22:01:00.688Z,101046.05
2018-08-28T22:03:28.930Z,101048.72
2018-08-28T22:05:57.202Z,101047.23
2018-08-28T22:08:25.631Z,101047.26
2018-08-28T22:10:54.032Z,101048.78
2018-08-28T22:13:22.469Z,101046.99
2018-08-28T22:15:50.716Z,101047.85
2018-08-28T22:18:19.031Z,101043.35
2018-08-28T22:20:52.602Z,101048.89
2018-08-28T22:23:20.907Z,101046.23
2018-08-28T22:25:49.388Z,101050.94
2018-08-28T22:28:17.638Z,101045.63
2018-08-28T22:30:45.886Z,101051.67
2018-08-28T22:33:14.193Z,101052.86
2018-08-28T22:35:42.923Z,101051.88
2018-08-28T22:38:11.202Z,101051.89
2018-08-28T22:40:39.627Z,101056.14
2018-08-28T22:43:08.859Z,101051.13
2018-08-28T22:45:37.334Z,101044.48
2018-08-28T22:48:06.032Z,101044.15
2018-08-28T22:50:34.702Z,101041.97
2018-08-28T22:53:03.021Z,101035.12
2018-08-28T22:55:31.421Z,101038.80
2018-08-28T22:57:59.702Z,101035.64
2018-08-28T23:00:27.945Z,101039.00
2018-08-28T23:02:56.263Z,101041.34
2018-08-28T23:05:24.526Z,101038.55
2018-08-28T23:07:52.857Z,101034.55
2018-08-28T23:10:21.447Z,101023.34
2018-08-28T23:12:51.176Z,101031.88
2018-08-28T23:15:19.526Z,101026.70
2018-08-28T23:17:47.771Z,101026.19
2018-08-28T23:20:16.160Z,101020.50
2018-08-28T23:22:44.445Z,101024.19
2018-08-28T23:25:12.744Z,101026.87
2018-08-28T23:27:41.053Z,101022.02
2018-08-28T23:30:09.328Z,101017.16
2018-08-28T23:32:37.607Z,101017.67
2018-08-28T23:35:05.983Z,101013.32
2018-08-28T23:37:34.301Z,101012.19
2018-08-28T23:40:02.698Z,101005.34
2018-08-28T23:42:30.938Z,101006.02
2018-08-28T23:44:59.231Z,101009.54
2018-08-28T23:47:27.493Z,101011.05
2018-08-28T23:49:55.749Z,101014.91
2018-08-28T23:52:24.026Z,101010.44
2018-08-28T23:54:52.291Z,101017.14
2018-08-28T23:57:20.654Z,101014.30
2018-08-28T23:59:48.961Z,101013.31
